New York, NY (10107)

5:07 PM EST on January 30, 2015 (GMT -0500)
WCBS TELEVISION | Change Station
CLOSE
Current Station
Personal Weather Station
Location: New York, NY
Elevation: 13 ft
Nearby Weather Stations
Active Advisory: Wind Advisory

Elev 13 ft 40.77 °N, 73.99 °W | Updated 4 seconds ago

Scattered Clouds
Scattered Clouds
35.0 °F
Feels Like 26 °F
N
12.4
Wind Variable Wind from SW
Gusts 34.5 mph

Today
High -- | Low -- °F
--% Chance of Precip.
Yesterday
High -- | Low -- °F
Precip. -- in
7:08 AM 5:10 PM
Waxing Gibbous, 85% visible
Pressure 29.88 in
Visibility 10.0 miles
Clouds Scattered Clouds 5000 ft
Windchill 26 °F
Dew Point 21 °F
Humidity 57%
Rainfall 0.07 in
Snow Depth Not available.
UV 0 out of 12
Pollen .10 out of 12
Air Quality Not available.
Flu Activity Not available.
METAR KNYC 302151Z AUTO 31011G27KT 280V340 10SM SCT050 02/M10 A2990 RMK AO2 PK WND 32027/2146 SLP117 T00171100

More Conditions Fewer Conditions

Pressure 29.88 in
Visibility 10.0 miles
Clouds Scattered Clouds 5000 ft
Windchill 26 °F
Dew Point 21 °F
Humidity 57%
Rainfall 0.07 in
Snow Depth Not available.
UV 0 out of 12
Pollen .10 out of 12
Air Quality Not available.
Flu Activity Not available.
METAR KNYC 302151Z AUTO 31011G27KT 280V340 10SM SCT050 02/M10 A2990 RMK AO2 PK WND 32027/2146 SLP117 T00171100

More Conditions Fewer Conditions

10-Day Weather Forecast

Almanac

Astronomy

Jan. 30, 2015 Rise Set
Actual Time
Civil Twilight
Nautical Twilight
Astronomical Twilight
Moon
Length of Visible Light
Length of Day
Tomorrow will be .
, % of the Moon is Illuminated

Today's Extremes

State Highs State Lows

Community

WunderPhotos

Upload Photos

1,791,902 photos uploaded!

WunderBlogs® & News

Nearby

Air Quality

  Air Quality AQ Index Pollutant
Not available.

Snow Depth

Station Depth Elevation

Earthquake Activity

City Distance Mag. Time & Date
Minimum magnitude displayed is 2.5.

Coastal Water Temperatures

Place Temperature

Nearby Weather Stations